createdAt,value
2018-04-26T00:01:51.973Z,75.10
2018-04-26T00:04:20.669Z,75.70
2018-04-26T00:06:48.528Z,75.70
2018-04-26T00:09:16.599Z,75.30
2018-04-26T00:11:44.477Z,75.70
2018-04-26T00:14:12.332Z,75.60
2018-04-26T00:16:40.656Z,77.10
2018-04-26T00:19:08.591Z,75.80
2018-04-26T00:21:36.448Z,75.40
2018-04-26T00:24:04.621Z,75.30
2018-04-26T00:26:32.487Z,75.20
2018-04-26T00:29:00.355Z,75.20
2018-04-26T00:31:28.175Z,75.40
2018-04-26T00:33:56.099Z,75.70
2018-04-26T00:36:24.164Z,76.90
2018-04-26T00:38:52.028Z,77.50
2018-04-26T00:41:19.898Z,77.20
2018-04-26T00:43:47.868Z,78.20
2018-04-26T00:46:15.737Z,77.60
2018-04-26T00:48:43.601Z,77.20
2018-04-26T00:51:11.469Z,76.70
2018-04-26T00:53:39.847Z,76.90
2018-04-26T00:56:07.713Z,76.80
2018-04-26T00:58:35.518Z,76.20
2018-04-26T01:01:04.166Z,77.70
2018-04-26T01:03:32.004Z,77.70
2018-04-26T01:06:00.003Z,78.00
2018-04-26T01:08:27.981Z,77.40
2018-04-26T01:10:55.840Z,77.30
2018-04-26T01:13:23.569Z,77.00
2018-04-26T01:15:51.827Z,77.30
2018-04-26T01:18:19.564Z,77.20
2018-04-26T01:20:48.091Z,77.90
2018-04-26T01:23:15.878Z,77.90
2018-04-26T01:25:44.390Z,77.90
2018-04-26T01:28:12.249Z,77.90
2018-04-26T01:30:40.055Z,77.90
2018-04-26T01:33:07.861Z,78.00
2018-04-26T01:35:35.636Z,78.00
2018-04-26T01:38:03.430Z,79.30
2018-04-26T01:40:32.462Z,79.20
2018-04-26T01:43:00.269Z,79.10
2018-04-26T01:45:28.129Z,79.00
2018-04-26T01:47:57.228Z,80.30
2018-04-26T01:50:25.094Z,79.70
2018-04-26T01:52:53.072Z,80.60
2018-04-26T01:55:20.938Z,80.50
2018-04-26T01:57:50.313Z,80.80
2018-04-26T02:00:18.312Z,80.10
2018-04-26T02:02:47.010Z,79.60
2018-04-26T02:05:15.884Z,81.30
2018-04-26T02:07:43.748Z,81.20
2018-04-26T02:10:11.617Z,81.20
2018-04-26T02:12:39.689Z,81.40
2018-04-26T02:15:09.090Z,81.20
2018-04-26T02:17:36.959Z,81.20
2018-04-26T02:20:04.937Z,81.00
2018-04-26T02:22:32.899Z,80.90
2018-04-26T02:25:02.272Z,80.20
2018-04-26T02:27:30.212Z,80.20
2018-04-26T02:29:58.037Z,79.80
2018-04-26T02:32:25.801Z,79.20
2018-04-26T02:34:53.767Z,79.10
2018-04-26T02:37:23.170Z,78.90
2018-04-26T02:39:51.048Z,78.80
2018-04-26T02:42:18.907Z,79.60
2018-04-26T02:44:46.879Z,79.20
2018-04-26T02:47:16.686Z,80.50
2018-04-26T02:49:44.557Z,80.50
2018-04-26T02:52:13.246Z,79.80
2018-04-26T02:54:41.107Z,80.00
2018-04-26T02:57:08.978Z,81.00
2018-04-26T02:59:37.051Z,81.80
2018-04-26T03:02:04.914Z,80.90
2018-04-26T03:04:32.799Z,81.50
2018-04-26T03:07:00.733Z,81.70
2018-04-26T03:09:28.619Z,81.30
2018-04-26T03:11:56.689Z,80.90
2018-04-26T03:14:24.557Z,81.50
2018-04-26T03:16:52.428Z,81.70
2018-04-26T03:19:20.294Z,81.40
2018-04-26T03:21:48.169Z,80.60
2018-04-26T03:24:16.244Z,80.60
2018-04-26T03:26:44.105Z,80.30
2018-04-26T03:29:11.974Z,80.00
2018-04-26T03:31:40.244Z,79.50
2018-04-26T03:34:08.111Z,79.20
2018-04-26T03:36:36.807Z,79.00
2018-04-26T03:39:04.877Z,78.70
2018-04-26T03:41:32.736Z,79.40
2018-04-26T03:44:00.614Z,79.50
2018-04-26T03:46:28.546Z,79.70
2018-04-26T03:48:56.851Z,79.90
2018-04-26T03:51:24.715Z,81.00
2018-04-26T03:53:52.760Z,81.10
2018-04-26T03:56:20.665Z,81.30
2018-04-26T03:58:48.521Z,83.80
2018-04-26T04:01:28.518Z,85.40
2018-04-26T04:04:08.325Z,86.30
2018-04-26T04:06:37.219Z,84.80
2018-04-26T04:09:05.180Z,85.00
2018-04-26T04:11:33.053Z,84.50
2018-04-26T04:14:00.918Z,85.30
2018-04-26T04:16:28.792Z,85.40
2018-04-26T04:18:56.763Z,84.20
2018-04-26T04:21:24.622Z,84.10
2018-04-26T04:23:52.497Z,84.20
2018-04-26T04:26:20.762Z,85.00
2018-04-26T04:28:53.411Z,85.30
2018-04-26T04:31:23.284Z,84.90
2018-04-26T04:33:51.943Z,84.30
2018-04-26T04:36:19.917Z,84.30
2018-04-26T04:38:48.144Z,84.40
2018-04-26T04:41:15.903Z,83.80
2018-04-26T04:43:43.899Z,83.90
2018-04-26T04:46:11.800Z,84.30
2018-04-26T04:48:39.761Z,84.70
2018-04-26T04:51:07.627Z,85.40
2018-04-26T04:53:35.598Z,84.50
2018-04-26T04:56:05.002Z,84.10
2018-04-26T04:58:33.903Z,84.70
2018-04-26T05:01:02.579Z,82.10
2018-04-26T05:03:30.446Z,82.10
2018-04-26T05:05:58.313Z,82.50
2018-04-26T05:08:27.217Z,82.20
2018-04-26T05:10:55.175Z,82.30
2018-04-26T05:13:23.041Z,83.10
2018-04-26T05:15:50.916Z,82.30
2018-04-26T05:18:18.878Z,82.20
2018-04-26T05:20:47.156Z,82.30
2018-04-26T05:23:14.960Z,82.00
2018-04-26T05:25:43.639Z,82.20
2018-04-26T05:28:11.885Z,82.10
2018-04-26T05:30:39.750Z,81.90
2018-04-26T05:33:07.616Z,82.10
2018-04-26T05:35:35.483Z,82.10
2018-04-26T05:38:03.349Z,81.90
2018-04-26T05:40:31.396Z,81.80
2018-04-26T05:42:59.197Z,81.70
2018-04-26T05:45:27.056Z,81.70
2018-04-26T05:47:55.126Z,81.20
2018-04-26T05:50:23.096Z,81.10
2018-04-26T05:52:50.965Z,80.80
2018-04-26T05:55:18.832Z,81.00
2018-04-26T05:57:47.527Z,79.10
2018-04-26T06:00:15.363Z,78.80
2018-04-26T06:02:43.252Z,79.30
2018-04-26T06:05:11.127Z,79.80
2018-04-26T06:07:39.088Z,79.50
2018-04-26T06:10:06.953Z,78.70
2018-04-26T06:12:34.787Z,79.10
2018-04-26T06:15:02.550Z,79.40
2018-04-26T06:17:30.326Z,80.70
2018-04-26T06:19:58.289Z,79.80
2018-04-26T06:22:26.061Z,79.90
2018-04-26T06:24:53.806Z,78.40
2018-04-26T06:27:21.649Z,78.10
2018-04-26T06:29:50.174Z,78.10
2018-04-26T06:32:17.966Z,78.20
2018-04-26T06:34:45.725Z,78.10
2018-04-26T06:37:13.564Z,78.30
2018-04-26T06:39:41.465Z,78.50
2018-04-26T06:42:09.844Z,78.50
2018-04-26T06:44:37.719Z,77.70
2018-04-26T06:47:05.541Z,77.40
2018-04-26T06:49:33.720Z,78.00
2018-04-26T06:52:02.033Z,77.70
2018-04-26T06:54:29.804Z,77.40
2018-04-26T06:56:57.643Z,76.70
2018-04-26T06:59:25.523Z,77.20
2018-04-26T07:01:53.326Z,76.80
2018-04-26T07:04:21.807Z,76.80
2018-04-26T07:06:50.457Z,75.40
2018-04-26T07:09:18.530Z,75.40
2018-04-26T07:11:46.395Z,75.10
2018-04-26T07:14:14.183Z,75.50
2018-04-26T07:16:42.333Z,72.50
2018-04-26T07:19:10.201Z,70.70
2018-04-26T07:21:38.169Z,74.20
2018-04-26T07:24:06.037Z,73.60
2018-04-26T07:26:33.908Z,72.40
2018-04-26T07:29:01.876Z,67.90
2018-04-26T07:31:29.843Z,65.40
2018-04-26T07:33:57.712Z,63.80
2018-04-26T07:36:25.578Z,64.80
2018-04-26T07:38:53.547Z,65.20
2018-04-26T07:41:21.343Z,68.00
2018-04-26T07:43:50.001Z,70.20
2018-04-26T07:46:18.191Z,70.10
2018-04-26T07:48:46.042Z,68.20
2018-04-26T07:51:13.906Z,64.60
2018-04-26T07:53:42.286Z,64.20
2018-04-26T07:56:10.049Z,62.80
2018-04-26T07:58:37.918Z,63.50
2018-04-26T08:01:05.989Z,63.60
2018-04-26T08:03:33.856Z,62.80
2018-04-26T08:06:01.724Z,63.80
2018-04-26T08:08:29.590Z,62.50
2018-04-26T08:10:57.458Z,61.30
2018-04-26T08:13:25.325Z,59.10
2018-04-26T08:15:53.192Z,58.60
2018-04-26T08:18:21.469Z,59.30
2018-04-26T08:20:49.336Z,57.20
2018-04-26T08:23:17.202Z,56.40
2018-04-26T08:25:45.075Z,52.80
2018-04-26T08:28:12.788Z,51.90
2018-04-26T08:30:41.023Z,50.30
2018-04-26T08:33:08.739Z,50.90
2018-04-26T08:35:36.460Z,51.70
2018-04-26T08:38:04.407Z,49.40
2018-04-26T08:40:32.273Z,49.20
2018-04-26T08:43:00.346Z,48.10
2018-04-26T08:45:28.221Z,48.80
2018-04-26T08:47:56.083Z,49.60
2018-04-26T08:50:25.688Z,48.00
2018-04-26T08:52:53.404Z,47.90
2018-04-26T08:55:21.125Z,47.20
2018-04-26T08:57:48.982Z,48.60
2018-04-26T09:00:17.669Z,49.30
2018-04-26T09:02:45.428Z,49.20
2018-04-26T09:05:13.198Z,50.00
2018-04-26T09:07:40.924Z,49.80
2018-04-26T09:10:08.826Z,47.10
2018-04-26T09:12:36.544Z,49.50
2018-04-26T09:15:04.335Z,49.20
2018-04-26T09:17:32.246Z,48.60
2018-04-26T09:20:00.039Z,47.50
2018-04-26T09:22:27.768Z,45.80
2018-04-26T09:24:55.555Z,46.50
2018-04-26T09:27:24.036Z,49.30
2018-04-26T09:29:52.507Z,50.20
2018-04-26T09:32:21.136Z,53.00
2018-04-26T09:34:49.038Z,53.00
2018-04-26T09:37:16.901Z,53.40
2018-04-26T09:39:44.769Z,53.00
2018-04-26T09:42:12.638Z,51.40
2018-04-26T09:44:40.711Z,52.50
2018-04-26T09:47:08.575Z,54.10
2018-04-26T09:49:36.446Z,58.70
2018-04-26T09:52:04.751Z,61.20
2018-04-26T09:54:33.236Z,64.80
2018-04-26T09:57:01.875Z,63.50
2018-04-26T09:59:29.637Z,63.40
2018-04-26T10:02:03.459Z,62.70
2018-04-26T10:04:36.982Z,59.70
2018-04-26T10:07:05.644Z,60.50
2018-04-26T10:09:33.715Z,60.40
2018-04-26T10:12:01.519Z,61.90
2018-04-26T10:14:30.166Z,61.20
2018-04-26T10:16:58.422Z,61.10
2018-04-26T10:19:27.025Z,58.10
2018-04-26T10:21:54.817Z,58.10
2018-04-26T10:24:23.476Z,57.50
2018-04-26T10:26:51.343Z,57.40
2018-04-26T10:29:19.209Z,58.80
2018-04-26T10:31:47.078Z,62.00
2018-04-26T10:34:14.945Z,64.60
2018-04-26T10:36:43.017Z,66.30
2018-04-26T10:39:10.882Z,67.60
2018-04-26T10:41:38.750Z,68.00
2018-04-26T10:44:06.505Z,68.40
2018-04-26T10:46:34.272Z,70.60
2018-04-26T10:49:01.983Z,67.20
2018-04-26T10:51:30.464Z,62.80
2018-04-26T10:53:58.983Z,63.10
2018-04-26T10:56:26.715Z,62.40
2018-04-26T10:58:55.228Z,62.80
2018-04-26T11:01:22.942Z,62.70
2018-04-26T11:03:51.457Z,57.70
2018-04-26T11:06:19.626Z,57.50
2018-04-26T11:08:47.344Z,56.90
2018-04-26T11:11:15.058Z,54.60
2018-04-26T11:13:43.302Z,53.90
2018-04-26T11:16:11.798Z,55.20
2018-04-26T11:18:40.279Z,57.40
2018-04-26T11:21:08.797Z,56.10
2018-04-26T11:23:36.528Z,56.10
2018-04-26T11:26:05.087Z,53.50
2018-04-26T11:28:32.807Z,53.50
2018-04-26T11:31:00.577Z,52.20
2018-04-26T11:33:28.318Z,50.60
2018-04-26T11:35:56.085Z,50.70
2018-04-26T11:38:23.833Z,51.30
2018-04-26T11:40:52.715Z,51.70
2018-04-26T11:43:21.206Z,52.30
2018-04-26T11:45:49.680Z,50.80
2018-04-26T11:48:18.563Z,52.80
2018-04-26T11:50:47.046Z,50.30
2018-04-26T11:53:15.542Z,54.00
2018-04-26T11:55:44.421Z,52.90
2018-04-26T11:58:12.899Z,53.80
2018-04-26T12:00:41.393Z,54.70
2018-04-26T12:03:10.040Z,52.80
2018-04-26T12:05:38.733Z,50.20
2018-04-26T12:08:06.495Z,50.20
2018-04-26T12:10:34.279Z,49.50
2018-04-26T12:13:02.063Z,49.10
2018-04-26T12:15:30.544Z,50.70
2018-04-26T12:17:59.048Z,51.90
2018-04-26T12:20:27.215Z,51.70
2018-04-26T12:22:54.928Z,47.90
2018-04-26T12:25:22.662Z,47.20
2018-04-26T12:27:50.420Z,46.60
2018-04-26T12:30:18.204Z,47.60
2018-04-26T12:32:45.955Z,48.70
2018-04-26T12:35:13.848Z,46.60
2018-04-26T12:37:41.669Z,43.50
2018-04-26T12:40:10.130Z,43.40
2018-04-26T12:42:38.650Z,45.70
2018-04-26T12:45:06.363Z,45.60
2018-04-26T12:47:34.358Z,44.00
2018-04-26T12:50:02.181Z,43.90
2018-04-26T12:52:30.043Z,42.90
2018-04-26T12:54:57.910Z,41.70
2018-04-26T12:57:25.777Z,43.20
2018-04-26T12:59:53.746Z,43.30
2018-04-26T13:02:21.614Z,44.00
2018-04-26T13:04:49.488Z,42.90
2018-04-26T13:07:18.886Z,42.90
2018-04-26T13:09:46.753Z,42.90
2018-04-26T13:12:14.618Z,43.90
2018-04-26T13:14:42.488Z,43.20
2018-04-26T13:17:10.359Z,42.30
2018-04-26T13:19:39.041Z,43.00
2018-04-26T13:22:06.907Z,43.00
2018-04-26T13:24:34.772Z,44.70
2018-04-26T13:27:02.908Z,45.10
2018-04-26T13:29:31.533Z,46.00
2018-04-26T13:31:59.400Z,45.30
2018-04-26T13:34:28.086Z,45.50
2018-04-26T13:36:55.952Z,45.30
2018-04-26T13:39:24.028Z,44.20
2018-04-26T13:41:51.891Z,46.20
2018-04-26T13:44:19.758Z,46.00
2018-04-26T13:46:47.624Z,40.60
2018-04-26T13:49:15.423Z,41.20
2018-04-26T13:51:44.081Z,43.50
2018-04-26T13:54:11.944Z,43.70
2018-04-26T13:56:39.814Z,42.80
2018-04-26T13:59:07.698Z,42.20
2018-04-26T14:01:35.737Z,42.90
2018-04-26T14:04:03.470Z,43.50
2018-04-26T14:06:31.211Z,41.40
2018-04-26T14:08:59.754Z,43.00
2018-04-26T14:11:27.468Z,43.00
2018-04-26T14:13:55.947Z,42.50
2018-04-26T14:16:24.471Z,43.40
2018-04-26T14:18:52.195Z,43.30
2018-04-26T14:21:21.080Z,45.00
2018-04-26T14:23:49.566Z,45.80
2018-04-26T14:26:17.292Z,45.80
2018-04-26T14:28:45.081Z,45.40
2018-04-26T14:31:12.835Z,42.50
2018-04-26T14:33:40.548Z,43.50
2018-04-26T14:36:08.449Z,42.60
2018-04-26T14:38:36.419Z,42.80
2018-04-26T14:41:04.387Z,41.20
2018-04-26T14:43:32.329Z,43.30
2018-04-26T14:46:00.868Z,42.10
2018-04-26T14:48:29.627Z,41.30
2018-04-26T14:50:57.335Z,41.30
2018-04-26T14:53:25.807Z,41.60
2018-04-26T14:55:54.371Z,42.70
2018-04-26T14:58:22.223Z,42.70
2018-04-26T15:00:50.092Z,41.50
2018-04-26T15:03:17.957Z,40.10
2018-04-26T15:05:45.827Z,40.70
2018-04-26T15:08:14.000Z,38.90
2018-04-26T15:10:42.583Z,40.60
2018-04-26T15:13:10.450Z,40.30
2018-04-26T15:15:38.451Z,40.30
2018-04-26T15:18:07.419Z,41.30
2018-04-26T15:20:35.997Z,40.60
2018-04-26T15:23:04.683Z,41.10
2018-04-26T15:25:32.391Z,41.20
2018-04-26T15:28:00.930Z,41.90
2018-04-26T15:30:28.804Z,42.00
2018-04-26T15:32:56.518Z,43.10
2018-04-26T15:35:24.286Z,45.30
2018-04-26T15:37:56.801Z,45.70
2018-04-26T15:40:25.321Z,43.50
2018-04-26T15:42:53.948Z,43.30
2018-04-26T15:45:21.701Z,43.00
2018-04-26T15:47:49.439Z,43.70
2018-04-26T15:53:33.724Z,45.90
2018-04-26T15:56:13.788Z,45.90
2018-04-26T16:02:17.843Z,46.40
2018-04-26T16:04:57.467Z,46.30
2018-04-26T16:07:51.741Z,45.60
2018-04-26T16:13:48.808Z,46.30
2018-04-26T16:19:47.300Z,46.10
2018-04-26T16:22:33.571Z,47.00
2018-04-26T16:25:13.342Z,46.60
2018-04-26T16:27:53.666Z,46.60
2018-04-26T16:30:33.132Z,46.60
2018-04-26T16:33:12.727Z,47.40
2018-04-26T16:35:52.317Z,47.00
2018-04-26T16:38:31.978Z,48.60
2018-04-26T16:41:00.467Z,47.70
2018-04-26T16:43:29.030Z,47.20
2018-04-26T16:45:57.535Z,47.50
2018-04-26T16:48:26.032Z,47.20
2018-04-26T16:50:53.792Z,47.20
2018-04-26T16:53:21.539Z,47.30
2018-04-26T16:56:07.726Z,47.10
2018-04-26T16:58:53.330Z,47.00
2018-04-26T17:01:23.473Z,47.80
2018-04-26T17:03:52.190Z,48.90
2018-04-26T17:06:20.055Z,48.90
2018-04-26T17:08:47.924Z,48.10
2018-04-26T17:11:15.789Z,47.10
2018-04-26T17:13:44.580Z,46.70
2018-04-26T17:16:12.329Z,46.10
2018-04-26T17:18:40.213Z,46.30
2018-04-26T17:21:08.081Z,47.60
2018-04-26T17:23:35.844Z,47.60
2018-04-26T17:26:03.605Z,47.00
2018-04-26T17:28:31.334Z,47.70
2018-04-26T17:30:59.313Z,47.40
2018-04-26T17:33:27.207Z,48.40
2018-04-26T17:35:55.285Z,48.40
2018-04-26T17:38:23.148Z,49.20
2018-04-26T17:40:51.014Z,49.30
2018-04-26T17:43:18.884Z,49.30
2018-04-26T17:45:46.749Z,49.60
2018-04-26T17:48:14.547Z,50.00
2018-04-26T17:50:43.407Z,50.10
2018-04-26T17:53:11.352Z,50.00
2018-04-26T17:55:39.964Z,50.10
2018-04-26T17:58:07.997Z,50.10
2018-04-26T18:00:37.229Z,50.90
2018-04-26T18:03:05.835Z,50.90
2018-04-26T18:05:33.931Z,51.20
2018-04-26T18:08:05.847Z,52.00
2018-04-26T18:10:37.826Z,52.00
2018-04-26T18:13:10.761Z,52.50
2018-04-26T18:15:38.669Z,53.20
2018-04-26T18:18:06.533Z,52.40
2018-04-26T18:20:34.400Z,52.60
2018-04-26T18:23:02.372Z,53.00
2018-04-26T18:25:32.277Z,53.10
2018-04-26T18:28:02.713Z,53.60
2018-04-26T18:30:31.399Z,53.20
2018-04-26T18:32:59.471Z,53.10
2018-04-26T18:35:29.095Z,54.10
2018-04-26T18:37:58.947Z,56.20
2018-04-26T18:40:26.857Z,56.10
2018-04-26T18:42:57.454Z,56.40
2018-04-26T18:45:26.894Z,56.60
2018-04-26T18:47:54.860Z,56.90
2018-04-26T18:50:23.443Z,56.70
2018-04-26T18:52:51.759Z,57.40
2018-04-26T18:55:20.703Z,57.10
2018-04-26T18:57:54.678Z,58.50
2018-04-26T19:00:25.146Z,59.50
2018-04-26T19:02:54.967Z,59.40
2018-04-26T19:05:23.825Z,59.50
2018-04-26T19:07:51.720Z,59.50
2018-04-26T19:10:20.409Z,61.20
2018-04-26T19:12:48.276Z,61.20
2018-04-26T19:15:16.760Z,60.50
2018-04-26T19:17:46.369Z,62.70
2018-04-26T19:20:14.237Z,62.60
2018-04-26T19:22:42.099Z,62.50
2018-04-26T19:25:09.891Z,64.00
2018-04-26T19:27:37.737Z,63.40
2018-04-26T19:30:06.943Z,65.10
2018-04-26T19:32:36.796Z,64.30
2018-04-26T19:35:05.264Z,66.20
2018-04-26T19:37:33.912Z,66.30
2018-04-26T19:40:05.686Z,66.30
2018-04-26T19:42:34.562Z,67.30
2018-04-26T19:45:04.940Z,67.30
2018-04-26T19:47:34.272Z,68.30
2018-04-26T19:50:04.250Z,69.40
2018-04-26T19:52:34.351Z,70.00
2018-04-26T19:55:04.245Z,70.10
2018-04-26T19:57:32.107Z,70.00
2018-04-26T19:59:59.975Z,71.60
2018-04-26T20:02:29.014Z,72.90
2018-04-26T20:04:58.092Z,72.20
2018-04-26T20:07:27.088Z,71.90
2018-04-26T20:09:56.661Z,73.00
2018-04-26T20:12:25.379Z,71.10
2018-04-26T20:14:53.425Z,71.00
2018-04-26T20:17:22.943Z,71.70
2018-04-26T20:19:51.553Z,71.70
2018-04-26T20:22:20.199Z,71.70
2018-04-26T20:24:48.067Z,71.70
2018-04-26T20:27:15.935Z,71.70
2018-04-26T20:29:43.803Z,70.20
2018-04-26T20:32:11.670Z,69.80
2018-04-26T20:34:39.536Z,71.40
2018-04-26T20:37:07.343Z,71.10
2018-04-26T20:39:35.169Z,71.40
2018-04-26T20:42:03.044Z,71.10
2018-04-26T20:44:42.781Z,70.60
2018-04-26T20:47:10.649Z,70.70
2018-04-26T20:49:38.517Z,71.70
2018-04-26T20:52:06.979Z,72.10
2018-04-26T20:54:34.969Z,72.10
2018-04-26T20:57:02.836Z,72.20
2018-04-26T20:59:30.712Z,71.50
2018-04-26T21:01:58.569Z,71.60
2018-04-26T21:04:26.543Z,72.20
2018-04-26T21:06:54.923Z,72.20
2018-04-26T21:09:22.683Z,71.40
2018-04-26T21:11:50.550Z,71.00
2018-04-26T21:14:18.420Z,70.90
2018-04-26T21:16:46.289Z,70.30
2018-04-26T21:19:14.255Z,71.20
2018-04-26T21:21:41.978Z,69.30
2018-04-26T21:24:09.887Z,69.30
2018-04-26T21:26:37.686Z,68.70
2018-04-26T21:29:06.339Z,69.50
2018-04-26T21:31:34.306Z,69.30
2018-04-26T21:34:02.177Z,69.00
2018-04-26T21:36:30.044Z,68.40
2018-04-26T21:38:58.013Z,68.40
2018-04-26T21:41:25.885Z,68.50
2018-04-26T21:43:53.755Z,68.50
2018-04-26T21:46:21.823Z,68.60
2018-04-26T21:48:50.508Z,68.50
2018-04-26T21:51:24.043Z,68.50
2018-04-26T21:53:58.282Z,68.90
2018-04-26T21:56:31.822Z,68.90
2018-04-26T21:59:05.324Z,69.50
2018-04-26T22:01:38.752Z,68.90
2018-04-26T22:04:17.236Z,69.30
2018-04-26T22:06:45.310Z,69.30
2018-04-26T22:09:13.178Z,68.80
2018-04-26T22:11:41.042Z,68.70
2018-04-26T22:14:08.910Z,68.50
2018-04-26T22:16:36.982Z,68.50
2018-04-26T22:19:04.854Z,68.80
2018-04-26T22:21:32.717Z,68.80
2018-04-26T22:24:00.583Z,68.50
2018-04-26T22:26:28.450Z,68.20
2018-04-26T22:28:56.215Z,67.30
2018-04-26T22:31:24.288Z,67.60
2018-04-26T22:33:52.158Z,67.20
2018-04-26T22:36:19.918Z,67.20
2018-04-26T22:38:47.686Z,67.00
2018-04-26T22:41:15.552Z,67.20
2018-04-26T22:43:43.419Z,67.30
2018-04-26T22:46:11.492Z,67.20
2018-04-26T22:48:39.358Z,67.00
2018-04-26T22:51:07.225Z,67.30
2018-04-26T22:53:35.096Z,67.30
2018-04-26T22:56:02.962Z,67.70
2018-04-26T22:58:30.825Z,68.00
2018-04-26T23:00:58.626Z,67.80
2018-04-26T23:03:27.279Z,68.30
2018-04-26T23:05:55.149Z,68.20
2018-04-26T23:08:23.013Z,68.10
2018-04-26T23:10:50.984Z,68.20
2018-04-26T23:13:18.849Z,68.20
2018-04-26T23:15:46.722Z,68.20
2018-04-26T23:18:14.584Z,68.40
2018-04-26T23:20:42.387Z,68.30
2018-04-26T23:23:11.446Z,69.00
2018-04-26T23:25:39.235Z,68.90
2018-04-26T23:28:07.896Z,69.70
2018-04-26T23:30:35.764Z,68.90
2018-04-26T23:33:03.478Z,68.80
2018-04-26T23:35:31.199Z,69.10
2018-04-26T23:37:58.964Z,69.30
2018-04-26T23:40:26.663Z,69.30
2018-04-26T23:42:55.151Z,69.30
2018-04-26T23:45:23.664Z,69.70
2018-04-26T23:47:51.381Z,69.70
2018-04-26T23:50:20.307Z,69.60
2018-04-26T23:52:48.020Z,69.60
2018-04-26T23:55:15.739Z,69.80
2018-04-26T23:57:43.482Z,70.00
